Time;durP1;ratioP1;P1;durP2;ratioP2;P2;SDS_P1;SDS_P2;PMS_P1;PMS_P2;Temp;Humidity;BMP_temperature;BMP_pressure;BME280_temperature;BME280_humidity;BME280_pressure;Samples;Min_cycle;Max_cycle;Signal;HPM_P1;HPM_P2
2021/07/31 04:30:40;;;;;;;18.40;2.13;;;15.80;28.90;;;;;;1357481;23;21482;-82
2021/07/31 04:33:07;;;;;;;18.67;3.00;;;15.90;29.10;;;;;;4973292;28;20470;-81
2021/07/31 04:35:34;;;;;;;20.50;2.90;;;16.00;28.60;;;;;;4973383;28;20455;-86
2021/07/31 04:38:02;;;;;;;18.93;2.63;;;16.00;28.10;;;;;;4974117;28;20959;-83
2021/07/31 04:40:29;;;;;;;20.40;3.07;;;16.10;28.10;;;;;;4973794;28;20613;-84
2021/07/31 04:42:55;;;;;;;22.07;2.40;;;16.20;27.90;;;;;;4973286;28;20487;-83
2021/07/31 04:45:22;;;;;;;21.47;2.93;;;16.20;27.70;;;;;;4972500;28;20470;-85
2021/07/31 04:47:50;;;;;;;22.00;2.33;;;16.20;27.20;;;;;;4973611;28;20463;-84
2021/07/31 04:50:35;;;;;;;20.57;3.40;;;16.30;27.50;;;;;;4973519;28;20459;-87
2021/07/31 04:53:48;;;;;;;21.00;3.67;;;16.30;27.60;;;;;;4973411;28;20454;-88
2021/07/31 04:56:15;;;;;;;23.30;2.50;;;16.40;27.10;;;;;;4973570;28;20924;-82
2021/07/31 04:58:43;;;;;;;21.40;2.73;;;16.30;27.30;;;;;;4973488;28;20495;-81
2021/07/31 05:01:17;;;;;;;21.23;3.03;;;16.40;27.90;;;;;;4972094;28;20455;-81
2021/07/31 05:04:14;;;;;;;22.17;2.77;;;16.40;28.00;;;;;;4973506;28;20454;-82
2021/07/31 05:06:45;;;;;;;21.57;3.00;;;16.40;27.50;;;;;;4918745;28;20568;-83
2021/07/31 05:09:13;;;;;;;21.70;3.33;;;16.50;27.20;;;;;;4974851;28;20481;-82
2021/07/31 05:11:41;;;;;;;21.27;2.90;;;16.60;26.70;;;;;;4976830;28;20549;-82
2021/07/31 05:14:08;;;;;;;23.87;2.93;;;16.50;27.10;;;;;;4976666;28;20863;-82
2021/07/31 05:16:34;;;;;;;22.37;2.33;;;16.60;26.60;;;;;;4975574;28;20458;-81
2021/07/31 05:19:01;;;;;;;21.97;2.63;;;16.70;26.80;;;;;;4976795;28;20541;-82
2021/07/31 05:21:28;;;;;;;22.60;7.17;;;16.70;26.80;;;;;;4976694;28;20458;-82
2021/07/31 05:23:56;;;;;;;22.33;3.00;;;16.60;26.00;;;;;;4976764;28;20463;-83
2021/07/31 05:26:23;;;;;;;27.33;3.60;;;16.80;26.50;;;;;;4976354;28;20545;-82
2021/07/31 05:28:50;;;;;;;21.23;3.20;;;16.70;26.40;;;;;;4976806;28;20447;-82
2021/07/31 05:31:21;;;;;;;21.43;2.77;;;16.70;26.70;;;;;;4975292;28;20510;-82
2021/07/31 05:33:48;;;;;;;22.10;2.70;;;16.70;26.90;;;;;;4976522;28;20454;-81
2021/07/31 05:36:15;;;;;;;22.63;2.80;;;16.80;27.20;;;;;;4976379;28;20458;-82
2021/07/31 05:38:42;;;;;;;22.40;3.03;;;16.80;27.20;;;;;;4976340;28;20459;-82
2021/07/31 05:41:15;;;;;;;28.13;4.83;;;16.80;26.80;;;;;;4976542;28;20455;-81
2021/07/31 05:43:43;;;;;;;22.10;3.00;;;16.80;26.90;;;;;;4976304;28;20490;-81
2021/07/31 05:46:10;;;;;;;21.67;2.87;;;16.90;26.80;;;;;;4975234;28;20538;-81
2021/07/31 05:48:52;;;;;;;;;;;;;;;;;;;;;
2021/07/31 05:51:35;;;;;;;;;;;;;;;;;;;;;
2021/07/31 05:54:09;;;;;;;25.77;3.00;;;17.00;26.40;;;;;;4969091;28;20985;-82
2021/07/31 05:56:55;;;;;;;25.53;3.47;;;17.00;26.60;;;;;;4976009;28;20536;-82
2021/07/31 05:59:22;;;;;;;28.83;2.90;;;17.40;25.30;;;;;;4975545;28;20955;-80
2021/07/31 06:01:49;;;;;;;30.40;3.10;;;17.90;24.70;;;;;;4974821;28;20443;-81
2021/07/31 06:04:16;;;;;;;29.30;2.80;;;18.40;24.00;;;;;;4976140;28;20461;-81
2021/07/31 06:06:43;;;;;;;30.87;3.10;;;18.50;21.70;;;;;;4975891;28;20983;-81
2021/07/31 06:09:10;;;;;;;34.73;3.80;;;18.70;21.60;;;;;;4984205;28;20482;-78
2021/07/31 06:11:38;;;;;;;34.03;3.77;;;18.80;20.10;;;;;;4978955;28;20450;-81
2021/07/31 06:14:06;;;;;;;36.30;3.87;;;19.00;19.50;;;;;;4975704;28;20433;-83
2021/07/31 06:46:53;;;;;;;41.50;3.40;;;19.30;18.40;;;;;;4731258;30;20560;-80
2021/07/31 06:49:22;;;;;;;45.53;13.47;;;19.50;18.70;;;;;;4802046;29;20470;-80
2021/07/31 06:51:51;;;;;;;38.97;3.63;;;19.50;17.60;;;;;;4872740;29;20621;-81
2021/07/31 07:04:34;;;;;;;41.70;4.60;;;19.90;17.80;;;;;;4828723;29;21032;-84
2021/07/31 07:07:01;;;;;;;44.83;4.87;;;20.30;18.40;;;;;;4889668;29;20466;-85
2021/07/31 07:09:29;;;;;;;44.90;4.57;;;20.40;16.60;;;;;;4964768;28;20469;-83
2021/07/31 07:11:56;;;;;;;45.43;6.23;;;20.30;16.20;;;;;;4973439;28;20558;-80
2021/07/31 07:21:37;;;;;;;44.07;7.60;;;20.50;15.00;;;;;;4820752;29;20841;-84
2021/07/31 07:24:50;;;;;;;40.30;4.20;;;20.30;15.50;;;;;;4821943;29;20493;-84
2021/07/31 07:30:34;;;;;;;40.00;5.77;;;20.10;16.20;;;;;;4790554;29;20481;-83
2021/07/31 08:14:58;;;;;;;28.50;2.77;;;20.10;17.00;;;;;;4861483;29;20931;-85
2021/07/31 08:17:25;;;;;;;29.80;4.20;;;20.80;14.70;;;;;;4913737;29;20461;-82
2021/07/31 08:23:41;;;;;;;32.77;5.20;;;20.30;14.10;;;;;;4803198;29;20489;-85
2021/07/31 08:33:01;;;;;;;34.00;3.97;;;20.90;12.80;;;;;;4893916;29;20537;-81
2021/07/31 08:43:29;;;;;;;29.23;5.33;;;20.80;13.30;;;;;;4799798;29;20541;-86
2021/07/31 08:46:23;;;;;;;30.27;2.40;;;20.00;15.10;;;;;;4822087;29;20459;-85
2021/07/31 08:51:30;;;;;;;27.87;2.57;;;20.00;17.60;;;;;;4975846;28;20470;-79
2021/07/31 08:54:01;;;;;;;28.07;2.33;;;20.50;16.50;;;;;;4977372;28;20537;-80
2021/07/31 08:56:28;;;;;;;29.17;2.67;;;20.60;16.10;;;;;;4977495;28;20458;-82
2021/07/31 08:58:57;;;;;;;26.77;2.90;;;20.70;15.70;;;;;;4977111;28;20497;-82
2021/07/31 09:01:24;;;;;;;30.53;2.90;;;20.50;15.40;;;;;;4975892;28;20455;-83
2021/07/31 09:04:15;;;;;;;30.03;2.77;;;20.70;15.00;;;;;;4977012;28;20549;-85
2021/07/31 10:47:40;;;;;;;31.20;2.80;;;24.70;4.20;;;;;;5571599;23;20537;-78
2021/07/31 10:50:40;;;;;;;31.20;2.40;;;25.60;1.00;;;;;;4975017;28;20955;-78
2021/07/31 10:53:10;;;;;;;33.53;2.30;;;25.20;1.00;;;;;;4967880;28;20455;-76
2021/07/31 10:56:04;;;;;;;33.60;2.47;;;25.80;1.00;;;;;;4969948;28;20450;-80
2021/07/31 10:58:32;;;;;;;37.07;2.93;;;26.10;1.00;;;;;;4956287;28;20470;-77
2021/07/31 11:01:22;;;;;;;36.87;2.70;;;26.20;1.00;;;;;;4954364;29;20537;-77
2021/07/31 11:03:51;;;;;;;38.13;3.37;;;26.60;1.00;;;;;;4955305;29;20999;-77
2021/07/31 11:06:18;;;;;;;36.93;3.37;;;26.20;1.00;;;;;;4954478;28;20491;-77
2021/07/31 11:09:13;;;;;;;37.50;2.77;;;25.60;1.00;;;;;;4955568;29;20551;-77
2021/07/31 11:11:41;;;;;;;37.67;2.90;;;26.70;1.00;;;;;;4968125;28;20470;-80
2021/07/31 11:21:05;;;;;;;37.20;3.10;;;23.90;1.00;;;;;;4972961;28;20450;-89
2021/07/31 11:23:44;;;;;;;;;;;;;;;;;;;;;
2021/07/31 11:26:14;;;;;;;40.63;2.90;;;23.90;1.00;;;;;;4974564;28;21012;-84
2021/07/31 11:38:59;;;;;;;32.40;2.77;;;25.30;1.00;;;;;;4851871;29;20488;-84
2021/07/31 11:41:59;;;;;;;;;;;;;;;;;;;;;
2021/07/31 11:45:05;;;;;;;39.83;7.23;;;25.60;1.00;;;;;;4914315;29;20856;-86
2021/07/31 11:52:14;;;;;;;35.10;2.07;;;25.80;1.00;;;;;;4803935;29;20475;-83
2021/07/31 11:54:44;;;;;;;36.77;2.70;;;26.60;1.00;;;;;;4811484;29;20478;-79
2021/07/31 11:57:15;;;;;;;36.33;2.30;;;26.50;1.00;;;;;;4876774;29;20459;-78
2021/07/31 11:59:43;;;;;;;37.40;2.97;;;26.30;1.00;;;;;;4928163;29;20458;-79
2021/07/31 12:02:09;;;;;;;39.17;2.43;;;26.40;1.00;;;;;;4953454;29;20460;-81
2021/07/31 12:04:46;;;;;;;36.77;2.60;;;25.90;1.00;;;;;;4954532;29;20487;-79
2021/07/31 12:07:17;;;;;;;38.50;4.00;;;25.30;1.00;;;;;;4954633;29;20465;-80
2021/07/31 12:09:44;;;;;;;38.30;2.83;;;24.40;1.00;;;;;;4954401;29;20518;-79
2021/07/31 12:12:25;;;;;;;35.30;3.37;;;24.20;1.00;;;;;;4954578;28;20460;-80
2021/07/31 12:15:12;;;;;;;34.23;3.63;;;25.60;1.00;;;;;;4954563;28;20510;-79
2021/07/31 12:17:42;;;;;;;34.67;2.67;;;25.60;1.00;;;;;;4955674;28;20542;-79
2021/07/31 12:20:09;;;;;;;35.30;2.80;;;25.10;1.00;;;;;;4958702;28;20453;-81
2021/07/31 12:22:50;;;;;;;35.37;3.03;;;24.60;1.00;;;;;;4958609;28;20483;-80
2021/07/31 12:25:18;;;;;;;36.83;3.07;;;23.60;1.00;;;;;;4958445;28;20518;-80
2021/07/31 12:27:58;;;;;;;35.73;2.90;;;22.70;2.30;;;;;;4958771;28;20538;-82
2021/07/31 12:30:27;;;;;;;33.60;2.53;;;22.10;4.40;;;;;;4957215;28;21424;-81
2021/07/31 12:32:55;;;;;;;33.10;3.23;;;21.90;5.90;;;;;;4958470;28;20523;-77
2021/07/31 12:35:46;;;;;;;33.20;2.73;;;21.80;7.30;;;;;;4967666;28;20475;-78
2021/07/31 12:38:17;;;;;;;30.70;2.80;;;21.90;7.90;;;;;;4953137;28;20884;-78
2021/07/31 12:40:44;;;;;;;29.23;3.07;;;22.20;6.90;;;;;;4956458;28;20459;-77
2021/07/31 12:43:16;;;;;;;30.57;2.90;;;22.50;5.20;;;;;;4956882;28;20578;-80
2021/07/31 12:45:44;;;;;;;30.67;2.20;;;22.70;3.40;;;;;;4955686;28;20463;-80
2021/07/31 12:48:12;;;;;;;30.57;2.17;;;23.40;1.90;;;;;;4956560;28;20455;-80
2021/07/31 12:50:39;;;;;;;38.73;2.30;;;24.00;1.00;;;;;;4956348;28;20462;-79
2021/07/31 12:53:06;;;;;;;29.97;2.60;;;24.20;1.00;;;;;;4956452;28;20460;-80
2021/07/31 12:55:33;;;;;;;29.27;2.17;;;25.20;1.00;;;;;;4956442;28;20467;-79
2021/07/31 12:58:00;;;;;;;29.40;1.90;;;27.10;1.00;;;;;;4956819;28;20455;-78
2021/07/31 13:00:44;;;;;;;31.93;2.03;;;27.20;1.00;;;;;;4955004;28;20510;-81
2021/07/31 13:06:21;;;;;;;33.03;2.53;;;28.40;1.00;;;;;;4956939;28;20873;-83
2021/07/31 13:08:50;;;;;;;34.80;2.50;;;27.50;1.00;;;;;;4957639;28;20463;-78
2021/07/31 13:11:17;;;;;;;36.73;2.07;;;27.80;1.00;;;;;;4957596;28;20836;-83
2021/07/31 13:13:44;;;;;;;40.30;4.73;;;27.70;1.00;;;;;;4957584;28;20466;-83
2021/07/31 13:16:12;;;;;;;38.67;3.13;;;26.20;1.00;;;;;;4956192;28;20454;-82
2021/07/31 13:18:41;;;;;;;35.50;3.80;;;25.50;1.00;;;;;;4957373;28;20452;-84
2021/07/31 13:21:08;;;;;;;38.37;3.30;;;25.40;1.00;;;;;;4957261;28;20968;-81
2021/07/31 13:23:36;;;;;;;39.58;6.55;;;24.80;1.00;;;;;;4957264;28;20406;-83
2021/07/31 13:26:31;;;;;;;;;;;;;;;;;;;;;
2021/07/31 13:36:47;;;;;;;35.53;2.50;;;22.80;1.00;;;;;;5446830;23;20549;-78
2021/07/31 13:39:19;;;;;;;31.20;2.30;;;22.90;1.00;;;;;;4976457;28;20483;-77
2021/07/31 13:41:46;;;;;;;33.47;2.83;;;23.20;1.10;;;;;;4976408;28;20788;-77
2021/07/31 13:44:15;;;;;;;31.40;2.37;;;23.10;1.10;;;;;;4976173;28;20998;-77
2021/07/31 13:46:42;;;;;;;31.27;3.50;;;22.70;2.80;;;;;;4974927;28;20827;-78
2021/07/31 13:49:10;;;;;;;30.17;1.93;;;22.30;2.80;;;;;;4975802;28;20455;-79
2021/07/31 13:51:38;;;;;;;30.37;1.90;;;22.10;2.80;;;;;;4975997;28;20450;-80
2021/07/31 13:54:06;;;;;;;29.53;2.20;;;22.30;4.80;;;;;;4976255;28;20536;-80
2021/07/31 13:56:33;;;;;;;29.60;1.97;;;22.50;4.70;;;;;;4976144;28;20888;-81
2021/07/31 13:59:04;;;;;;;30.43;2.50;;;22.80;1.00;;;;;;4975923;28;20887;-81
2021/07/31 14:01:34;;;;;;;29.60;2.20;;;22.80;1.00;;;;;;4974855;28;20459;-81
2021/07/31 14:04:00;;;;;;;32.03;5.83;;;22.90;1.00;;;;;;4976079;28;20483;-79
2021/07/31 14:06:28;;;;;;;32.30;2.80;;;22.80;1.00;;;;;;4976021;28;20482;-75
2021/07/31 14:08:55;;;;;;;29.43;3.23;;;23.10;1.00;;;;;;4975908;28;20463;-79
2021/07/31 14:11:23;;;;;;;30.80;2.10;;;24.70;1.00;;;;;;4975994;28;20462;-77
2021/07/31 14:13:49;;;;;;;30.87;1.80;;;25.50;1.00;;;;;;4975779;28;20462;-78
2021/07/31 14:16:16;;;;;;;35.37;1.97;;;25.80;1.00;;;;;;4974469;28;20479;-81
2021/07/31 14:18:43;;;;;;;33.63;2.43;;;25.80;1.00;;;;;;4975830;28;20459;-81
2021/07/31 14:21:10;;;;;;;34.53;2.10;;;25.30;1.00;;;;;;4975771;28;20481;-77
2021/07/31 14:23:38;;;;;;;32.70;2.67;;;26.00;1.00;;;;;;4975554;28;20491;-84
2021/07/31 14:26:10;;;;;;;34.87;3.70;;;26.20;1.00;;;;;;4975579;28;20463;-79
2021/07/31 14:28:39;;;;;;;32.73;2.20;;;26.10;1.00;;;;;;4975462;28;20459;-82
2021/07/31 14:31:06;;;;;;;35.07;2.53;;;26.40;1.00;;;;;;4974184;28;20459;-75
2021/07/31 14:33:33;;;;;;;34.47;2.50;;;26.90;1.00;;;;;;4975457;28;20813;-78
2021/07/31 14:36:00;;;;;;;40.50;3.43;;;27.20;1.00;;;;;;4975423;28;20850;-79
2021/07/31 14:38:28;;;;;;;37.00;2.27;;;27.00;1.00;;;;;;4975429;28;20471;-82
2021/07/31 14:40:55;;;;;;;37.00;2.80;;;27.30;1.00;;;;;;4974326;28;20455;-77
2021/07/31 14:43:22;;;;;;;35.03;2.30;;;26.60;1.00;;;;;;4975104;28;20454;-77
2021/07/31 14:45:50;;;;;;;38.80;2.70;;;27.30;1.00;;;;;;4973984;28;20461;-79
2021/07/31 14:48:17;;;;;;;38.13;2.80;;;27.80;1.00;;;;;;4975160;28;20459;-80
2021/07/31 14:50:44;;;;;;;38.47;3.03;;;28.00;1.00;;;;;;4975041;28;20553;-81
2021/07/31 14:53:10;;;;;;;40.00;2.77;;;27.70;1.00;;;;;;4975096;28;20447;-78
2021/07/31 14:55:38;;;;;;;38.80;3.03;;;27.60;1.00;;;;;;4974926;28;20438;-78
2021/07/31 14:58:05;;;;;;;38.30;2.73;;;26.70;1.00;;;;;;4975103;28;20434;-76
2021/07/31 15:00:32;;;;;;;38.60;3.17;;;27.80;1.00;;;;;;4973844;28;20467;-77
2021/07/31 15:03:00;;;;;;;37.77;2.43;;;28.00;1.00;;;;;;4974923;28;20426;-77
2021/07/31 15:05:27;;;;;;;38.33;2.90;;;28.50;1.00;;;;;;4974819;28;20494;-78
2021/07/31 15:07:54;;;;;;;38.20;3.40;;;28.90;1.00;;;;;;4976021;28;20463;-79
2021/07/31 15:10:21;;;;;;;39.03;3.03;;;27.80;1.00;;;;;;4983173;28;20549;-82
2021/07/31 15:12:47;;;;;;;38.43;2.70;;;28.40;1.00;;;;;;4994239;28;20439;-78
2021/07/31 15:15:14;;;;;;;41.33;4.10;;;28.60;1.00;;;;;;4993009;28;20482;-77
2021/07/31 15:17:41;;;;;;;40.30;2.60;;;28.60;1.00;;;;;;4994092;28;20462;-80
2021/07/31 15:20:11;;;;;;;40.70;3.17;;;28.90;1.00;;;;;;4994181;28;20541;-79
2021/07/31 15:22:39;;;;;;;42.67;2.80;;;27.70;1.00;;;;;;4993902;28;20465;-79
2021/07/31 15:25:07;;;;;;;41.10;2.30;;;26.50;1.00;;;;;;4993957;28;20493;-79
2021/07/31 15:27:34;;;;;;;40.10;3.33;;;26.80;1.00;;;;;;4994002;28;20482;-79
2021/07/31 15:30:01;;;;;;;38.97;2.40;;;27.30;1.00;;;;;;4994021;28;20814;-79
2021/07/31 15:32:28;;;;;;;38.67;2.27;;;27.80;1.00;;;;;;4980527;28;20448;-79
2021/07/31 15:35:01;;;;;;;40.27;2.50;;;27.60;1.00;;;;;;4974130;28;20558;-80
2021/07/31 15:37:30;;;;;;;39.10;2.30;;;26.60;1.00;;;;;;4973837;28;20492;-78
2021/07/31 15:39:57;;;;;;;37.03;2.13;;;26.10;1.00;;;;;;4974318;28;20458;-79
2021/07/31 15:42:24;;;;;;;37.47;2.20;;;26.80;1.00;;;;;;4974127;28;20817;-78
2021/07/31 15:44:51;;;;;;;38.40;3.60;;;27.90;1.00;;;;;;4974137;28;20486;-80
2021/07/31 15:47:18;;;;;;;37.30;2.20;;;28.60;1.00;;;;;;4967124;28;20434;-77
2021/07/31 15:49:44;;;;;;;38.33;2.40;;;28.20;1.00;;;;;;4954804;29;20455;-76
2021/07/31 15:52:11;;;;;;;37.87;2.57;;;27.90;1.00;;;;;;4973631;28;20451;-85
2021/07/31 15:54:39;;;;;;;38.80;2.47;;;26.90;1.00;;;;;;4974077;28;20465;-80
2021/07/31 15:57:06;;;;;;;39.90;2.40;;;26.50;1.00;;;;;;4974125;28;20432;-80
2021/07/31 15:59:35;;;;;;;40.80;2.57;;;26.00;1.00;;;;;;4971171;28;20457;-85
2021/07/31 16:02:02;;;;;;;38.87;2.50;;;26.00;1.00;;;;;;4971442;28;20462;-81
2021/07/31 16:04:29;;;;;;;38.60;2.30;;;26.20;1.00;;;;;;4972391;28;20518;-80
2021/07/31 16:06:55;;;;;;;38.80;2.90;;;25.90;1.00;;;;;;4972452;28;20455;-81
2021/07/31 16:09:22;;;;;;;37.80;2.70;;;25.10;1.00;;;;;;4972645;28;20459;-85
2021/07/31 16:11:50;;;;;;;36.70;3.57;;;24.60;1.00;;;;;;4972450;28;20455;-79
2021/07/31 16:14:18;;;;;;;37.10;3.03;;;25.00;1.00;;;;;;4972291;28;21105;-85
2021/07/31 16:16:45;;;;;;;35.80;2.40;;;25.70;1.00;;;;;;4971764;28;20451;-86
2021/07/31 16:19:12;;;;;;;36.60;2.60;;;25.30;1.00;;;;;;4972378;28;20463;-84
2021/07/31 16:21:39;;;;;;;37.10;2.70;;;25.00;1.00;;;;;;4972452;28;20466;-83
2021/07/31 16:24:06;;;;;;;38.10;3.50;;;24.30;1.00;;;;;;4972437;28;20463;-82
2021/07/31 16:26:33;;;;;;;36.40;3.20;;;23.60;1.00;;;;;;4972651;28;20513;-79
2021/07/31 16:29:01;;;;;;;35.53;3.00;;;23.30;1.00;;;;;;4972503;28;20458;-83
2021/07/31 16:31:28;;;;;;;35.00;2.43;;;22.70;1.00;;;;;;4971139;28;20475;-84
2021/07/31 16:33:54;;;;;;;33.03;2.60;;;22.60;1.00;;;;;;4972500;28;20450;-80
2021/07/31 16:36:23;;;;;;;33.40;2.80;;;22.40;1.40;;;;;;4972308;28;20487;-79
2021/07/31 16:38:50;;;;;;;32.00;2.20;;;22.40;2.40;;;;;;4972391;28;20457;-81
2021/07/31 16:41:18;;;;;;;30.40;2.63;;;22.30;3.20;;;;;;4972231;28;20458;-81
2021/07/31 16:43:45;;;;;;;29.70;2.30;;;22.10;2.40;;;;;;4972243;28;20462;-83
2021/07/31 16:46:15;;;;;;;30.60;2.40;;;22.30;3.50;;;;;;4970845;28;20971;-77
2021/07/31 16:52:03;;;;;;;29.87;2.70;;;22.30;2.10;;;;;;4894670;29;20454;-80
2021/07/31 16:54:30;;;;;;;28.93;2.27;;;22.20;2.50;;;;;;4966129;28;20562;-80
2021/07/31 16:56:57;;;;;;;31.33;5.03;;;22.20;3.80;;;;;;4973559;28;20462;-79
2021/07/31 16:59:25;;;;;;;30.30;2.80;;;22.20;3.70;;;;;;4973523;28;20864;-79
2021/07/31 17:01:53;;;;;;;29.93;2.70;;;22.20;5.30;;;;;;4972365;28;20556;-80
2021/07/31 17:04:20;;;;;;;33.70;3.43;;;22.20;6.10;;;;;;4973932;28;20458;-80
2021/07/31 17:06:47;;;;;;;30.70;3.10;;;22.10;6.10;;;;;;4977241;28;20463;-80
2021/07/31 17:09:14;;;;;;;31.67;3.40;;;22.10;7.00;;;;;;4977061;28;20490;-80
2021/07/31 17:11:41;;;;;;;32.80;3.50;;;22.00;6.50;;;;;;4977085;28;20498;-80
2021/07/31 17:14:08;;;;;;;32.10;3.53;;;22.00;6.90;;;;;;4976900;28;20887;-82
2021/07/31 17:16:35;;;;;;;30.77;4.00;;;22.00;7.00;;;;;;4975822;28;20459;-82
2021/07/31 17:19:29;;;;;;;32.57;3.27;;;22.00;7.60;;;;;;4976897;28;20466;-82
2021/07/31 17:21:58;;;;;;;31.10;2.60;;;21.80;5.90;;;;;;4977215;28;20458;-84
2021/07/31 17:24:28;;;;;;;30.97;3.27;;;21.60;6.80;;;;;;4976808;28;20462;-85
2021/07/31 17:26:57;;;;;;;32.00;2.87;;;21.50;8.20;;;;;;4976674;28;20462;-84
2021/07/31 17:29:29;;;;;;;30.23;2.97;;;21.50;8.90;;;;;;4976965;28;20513;-84
2021/07/31 17:32:09;;;;;;;30.37;3.43;;;21.60;9.60;;;;;;4975436;28;20454;-85
2021/07/31 17:58:11;;;;;;;31.13;3.57;;;20.70;12.10;;;;;;4860519;29;20499;-83
2021/07/31 18:00:45;;;;;;;29.17;2.80;;;20.70;12.70;;;;;;4881350;29;21026;-81
2021/07/31 18:03:12;;;;;;;29.17;3.07;;;20.70;12.70;;;;;;4960502;28;20454;-82
2021/07/31 18:05:39;;;;;;;29.17;3.10;;;20.70;12.70;;;;;;4974599;28;20565;-82
2021/07/31 18:08:06;;;;;;;27.90;3.00;;;20.70;12.90;;;;;;4975913;28;20545;-82
2021/07/31 18:10:33;;;;;;;29.20;3.07;;;20.60;12.70;;;;;;4993149;28;20518;-81
2021/07/31 18:13:02;;;;;;;28.30;3.00;;;20.40;12.60;;;;;;4994001;28;20481;-82
2021/07/31 18:15:30;;;;;;;27.37;2.50;;;20.40;14.50;;;;;;4992528;28;20597;-82
2021/07/31 18:17:57;;;;;;;28.77;3.17;;;20.30;13.90;;;;;;4994264;28;20552;-83
2021/07/31 18:20:27;;;;;;;32.37;3.10;;;20.30;15.00;;;;;;4995733;28;20458;-81
2021/07/31 18:22:53;;;;;;;28.30;2.57;;;20.30;15.10;;;;;;4994090;28;20493;-83
2021/07/31 18:25:20;;;;;;;28.70;3.60;;;20.30;15.10;;;;;;4993787;28;20494;-82
2021/07/31 18:27:47;;;;;;;29.20;3.07;;;20.30;16.10;;;;;;4994151;28;20462;-82
2021/07/31 18:30:14;;;;;;;29.20;3.17;;;20.40;15.00;;;;;;4993255;28;20454;-80
2021/07/31 18:32:45;;;;;;;29.43;2.80;;;20.40;15.80;;;;;;4993772;28;21131;-81
2021/07/31 18:35:13;;;;;;;27.20;3.90;;;20.50;16.00;;;;;;4994084;28;20533;-83
2021/07/31 18:37:40;;;;;;;32.23;2.87;;;20.40;14.80;;;;;;4993613;28;20847;-83
2021/07/31 18:40:11;;;;;;;28.77;3.33;;;20.20;15.40;;;;;;4993796;28;20549;-83
2021/07/31 18:42:38;;;;;;;30.47;4.20;;;20.10;15.20;;;;;;4993784;28;20458;-83
2021/07/31 18:45:06;;;;;;;33.30;3.43;;;19.90;15.90;;;;;;4993756;28;20509;-83
2021/07/31 18:47:33;;;;;;;32.30;3.03;;;19.80;16.70;;;;;;4985160;28;20473;-81
2021/07/31 18:50:01;;;;;;;28.80;2.90;;;19.70;16.80;;;;;;4974464;28;20971;-84
2021/07/31 18:52:29;;;;;;;28.07;3.10;;;19.50;18.00;;;;;;4973925;28;20463;-82
2021/07/31 18:54:56;;;;;;;30.23;3.53;;;19.40;19.10;;;;;;4973959;28;20549;-82
2021/07/31 18:57:23;;;;;;;28.80;3.23;;;19.20;19.10;;;;;;4974030;28;20549;-82
2021/07/31 18:59:50;;;;;;;29.10;3.40;;;19.00;19.80;;;;;;4975020;28;20463;-83
2021/07/31 19:02:29;;;;;;;29.23;3.10;;;19.00;20.10;;;;;;4973997;28;20481;-85
2021/07/31 19:04:57;;;;;;;28.10;3.47;;;18.90;21.00;;;;;;4974785;28;20458;-86
2021/07/31 19:07:37;;;;;;;29.20;3.27;;;18.70;21.80;;;;;;4974785;28;20955;-86
2021/07/31 19:10:16;;;;;;;29.97;3.67;;;18.60;22.60;;;;;;4974528;28;20954;-84
2021/07/31 19:15:34;;;;;;;28.37;3.30;;;18.30;24.30;;;;;;4970612;28;20466;-86
2021/07/31 19:18:09;;;;;;;32.73;3.67;;;18.20;25.80;;;;;;4974619;28;20463;-86
2021/07/31 19:20:46;;;;;;;27.97;3.87;;;18.10;25.70;;;;;;4974467;28;20462;-85
2021/07/31 19:23:30;;;;;;;26.67;4.63;;;17.90;26.70;;;;;;4974812;28;20538;-88
2021/07/31 19:26:19;;;;;;;30.47;4.27;;;17.70;27.70;;;;;;4974296;28;21026;-86
2021/07/31 19:28:59;;;;;;;27.53;4.03;;;17.60;28.70;;;;;;4973955;28;20455;-87
2021/07/31 19:31:31;;;;;;;26.00;3.80;;;17.60;30.00;;;;;;4973587;28;20509;-86
2021/07/31 19:34:02;;;;;;;25.30;3.80;;;17.50;30.10;;;;;;4941235;28;20455;-87
2021/07/31 19:36:40;;;;;;;24.40;3.70;;;17.40;31.70;;;;;;4973967;28;20956;-86
2021/07/31 19:39:17;;;;;;;23.27;3.10;;;17.20;32.70;;;;;;4974105;28;20942;-86
2021/07/31 19:42:06;;;;;;;24.50;4.20;;;17.20;32.70;;;;;;4974203;28;20792;-88
2021/07/31 19:47:40;;;;;;;;;;;;;;;;;;;;;
2021/07/31 19:50:52;;;;;;;;;;;;;;;;;;;;;
2021/07/31 19:53:57;;;;;;;;;;;;;;;;;;;;;
2021/07/31 19:56:59;;;;;;;23.10;3.40;;;17.20;36.50;;;;;;4968940;28;20509;-86
2021/07/31 19:59:39;;;;;;;26.43;4.30;;;17.10;38.30;;;;;;4953401;28;20466;-86
2021/07/31 20:02:09;;;;;;;25.13;4.17;;;17.20;38.20;;;;;;4973115;28;20511;-85
2021/07/31 20:04:51;;;;;;;;;;;;;;;;;;;;;
2021/07/31 20:07:23;;;;;;;25.40;4.20;;;17.30;38.40;;;;;;4956274;28;20479;-85
2021/07/31 20:16:03;;;;;;;26.97;4.73;;;17.30;39.70;;;;;;4973169;28;20459;-81
2021/07/31 20:18:44;;;;;;;26.30;4.50;;;17.30;39.50;;;;;;4973818;28;20820;-83
2021/07/31 20:24:35;;;;;;;;;;;;;;;;;;;;;
2021/07/31 20:27:15;;;;;;;27.00;4.90;;;17.30;41.00;;;;;;4912755;29;20707;-87
2021/07/31 20:30:06;;;;;;;28.40;4.83;;;17.30;41.80;;;;;;4914114;29;20953;-86
